createdAt,value
2019-02-09T00:00:01.439Z,4.60
2019-02-09T00:02:28.029Z,5.37
2019-02-09T00:04:54.662Z,4.53
2019-02-09T00:07:21.304Z,4.15
2019-02-09T00:09:47.940Z,4.90
2019-02-09T00:12:14.525Z,4.78
2019-02-09T00:14:41.160Z,4.78
2019-02-09T00:17:07.750Z,5.00
2019-02-09T00:19:34.442Z,4.05
2019-02-09T00:22:01.079Z,4.83
2019-02-09T00:24:27.718Z,4.75
2019-02-09T00:26:54.353Z,4.50
2019-02-09T00:29:20.942Z,4.22
2019-02-09T00:31:47.634Z,4.53
2019-02-09T00:34:16.247Z,4.22
2019-02-09T00:36:42.632Z,4.40
2019-02-09T00:39:09.299Z,4.42
2019-02-09T00:41:35.932Z,4.30
2019-02-09T00:44:02.562Z,4.40
2019-02-09T00:46:29.305Z,4.05
2019-02-09T00:48:55.944Z,4.28
2019-02-09T00:51:22.531Z,3.75
2019-02-09T00:53:49.165Z,4.37
2019-02-09T00:56:15.750Z,4.35
2019-02-09T00:58:42.390Z,4.33
2019-02-09T01:01:08.971Z,4.35
2019-02-09T01:03:35.606Z,4.03
2019-02-09T01:06:02.194Z,4.30
2019-02-09T01:08:28.831Z,4.25
2019-02-09T01:10:55.416Z,4.20
2019-02-09T01:13:22.047Z,3.80
2019-02-09T01:15:48.633Z,4.15
2019-02-09T01:18:15.291Z,4.08
2019-02-09T01:20:41.932Z,4.10
2019-02-09T01:23:08.523Z,4.15
2019-02-09T01:25:35.154Z,3.77
2019-02-09T01:28:02.355Z,4.03
2019-02-09T01:30:28.944Z,3.90
2019-02-09T01:32:55.533Z,3.05
2019-02-09T01:35:22.167Z,3.33
2019-02-09T01:37:48.753Z,2.98
2019-02-09T01:40:15.386Z,3.27
2019-02-09T01:42:42.085Z,3.37
2019-02-09T01:45:08.823Z,2.85
2019-02-09T01:47:35.416Z,3.10
2019-02-09T01:50:02.047Z,3.05
2019-02-09T01:52:28.631Z,2.80
2019-02-09T01:54:55.272Z,3.25
2019-02-09T01:57:21.857Z,2.55
2019-02-09T01:59:48.490Z,2.75
2019-02-09T02:02:15.072Z,2.95
2019-02-09T02:04:41.703Z,2.70
2019-02-09T02:07:08.334Z,2.42
2019-02-09T02:09:34.916Z,2.72
2019-02-09T02:12:01.636Z,2.25
2019-02-09T02:14:28.213Z,2.27
2019-02-09T02:16:54.843Z,2.35
2019-02-09T02:19:21.427Z,2.42
2019-02-09T02:21:48.058Z,2.17
2019-02-09T02:24:16.810Z,2.17
2019-02-09T02:26:42.994Z,2.58
2019-02-09T02:29:09.621Z,2.10
2019-02-09T02:31:36.265Z,2.05
2019-02-09T02:34:02.846Z,2.10
2019-02-09T02:36:29.426Z,2.12
2019-02-09T02:38:56.061Z,1.92
2019-02-09T02:41:22.694Z,1.95
2019-02-09T02:43:49.326Z,2.05
2019-02-09T02:46:15.956Z,2.35
2019-02-09T02:48:42.601Z,1.98
2019-02-09T02:51:09.178Z,2.10
2019-02-09T02:53:35.758Z,2.10
2019-02-09T02:56:02.388Z,2.08
2019-02-09T02:58:29.014Z,1.87
2019-02-09T03:00:55.600Z,1.87
2019-02-09T03:03:22.229Z,1.80
2019-02-09T03:05:48.814Z,1.90
2019-02-09T03:08:15.541Z,1.90
2019-02-09T03:10:42.122Z,2.10
2019-02-09T03:13:08.757Z,1.90
2019-02-09T03:15:35.357Z,1.75
2019-02-09T03:18:01.993Z,2.00
2019-02-09T03:20:28.699Z,1.77
2019-02-09T03:22:55.279Z,1.80
2019-02-09T03:25:21.913Z,1.77
2019-02-09T03:27:48.646Z,1.70
2019-02-09T03:30:15.232Z,2.02
2019-02-09T03:32:41.811Z,1.80
2019-02-09T03:35:08.444Z,2.10
2019-02-09T03:37:35.075Z,2.10
2019-02-09T03:40:01.664Z,1.77
2019-02-09T03:42:28.294Z,2.17
2019-02-09T03:44:54.884Z,1.85
2019-02-09T03:47:21.469Z,1.70
2019-02-09T03:49:48.101Z,2.00
2019-02-09T03:52:14.729Z,2.00
2019-02-09T03:54:41.313Z,1.85
2019-02-09T03:57:07.943Z,2.20
2019-02-09T03:59:34.526Z,1.92
2019-02-09T04:02:01.502Z,1.90
2019-02-09T04:04:28.195Z,1.90
2019-02-09T04:06:54.773Z,2.10
2019-02-09T04:09:21.360Z,1.60
2019-02-09T04:11:47.986Z,1.72
2019-02-09T04:14:16.675Z,2.25
2019-02-09T04:16:43.029Z,1.80
2019-02-09T04:19:09.609Z,1.98
2019-02-09T04:21:36.244Z,1.90
2019-02-09T04:24:02.826Z,1.70
2019-02-09T04:26:29.459Z,1.55
2019-02-09T04:28:56.039Z,1.42
2019-02-09T04:31:22.671Z,1.80
2019-02-09T04:33:49.256Z,1.62
2019-02-09T04:36:15.953Z,1.67
2019-02-09T04:38:42.585Z,1.77
2019-02-09T04:41:09.174Z,1.75
2019-02-09T04:43:35.805Z,1.80
2019-02-09T04:46:02.398Z,1.42
2019-02-09T04:48:29.026Z,1.90
2019-02-09T04:50:55.608Z,1.60
2019-02-09T04:53:22.239Z,1.80
2019-02-09T04:55:48.823Z,1.70
2019-02-09T04:58:15.401Z,1.60
2019-02-09T05:00:42.029Z,1.85
2019-02-09T05:03:08.614Z,1.72
2019-02-09T05:05:35.249Z,1.62
2019-02-09T05:08:01.878Z,1.60
2019-02-09T05:10:28.498Z,1.60
2019-02-09T05:12:55.079Z,1.65
2019-02-09T05:15:21.709Z,1.82
2019-02-09T05:17:48.389Z,1.37
2019-02-09T05:20:15.021Z,1.75
2019-02-09T05:22:41.648Z,2.10
2019-02-09T05:25:08.235Z,1.70
2019-02-09T05:27:34.860Z,1.37
2019-02-09T05:30:01.444Z,1.55
2019-02-09T05:32:28.074Z,1.60
2019-02-09T05:34:54.752Z,1.72
2019-02-09T05:37:21.384Z,1.32
2019-02-09T05:39:48.023Z,1.40
2019-02-09T05:42:14.607Z,1.52
2019-02-09T05:44:41.181Z,1.60
2019-02-09T05:47:07.817Z,1.70
2019-02-09T05:49:34.443Z,1.75
2019-02-09T05:52:01.019Z,1.47
2019-02-09T05:54:27.650Z,1.62
2019-02-09T05:56:54.290Z,1.60
2019-02-09T05:59:20.922Z,1.42
2019-02-09T06:01:47.565Z,1.80
2019-02-09T06:04:14.143Z,1.57
2019-02-09T06:06:40.780Z,1.45
2019-02-09T06:09:07.408Z,1.77
2019-02-09T06:11:34.041Z,1.45
2019-02-09T06:14:00.625Z,1.47
2019-02-09T06:16:27.257Z,1.55
2019-02-09T06:18:53.838Z,1.65
2019-02-09T06:21:20.570Z,1.47
2019-02-09T06:23:47.154Z,1.57
2019-02-09T06:26:13.857Z,1.17
2019-02-09T06:28:40.438Z,1.65
2019-02-09T06:31:07.058Z,1.90
2019-02-09T06:33:33.635Z,1.95
2019-02-09T06:36:00.266Z,1.60
2019-02-09T06:38:26.847Z,1.57
2019-02-09T06:40:53.470Z,1.70
2019-02-09T06:43:20.049Z,1.30
2019-02-09T06:45:46.678Z,1.30
2019-02-09T06:48:13.255Z,1.30
2019-02-09T06:50:39.883Z,1.62
2019-02-09T06:53:06.465Z,1.37
2019-02-09T06:55:33.106Z,1.25
2019-02-09T06:57:59.729Z,1.42
2019-02-09T07:00:26.310Z,1.55
2019-02-09T07:02:54.568Z,1.32
2019-02-09T07:05:21.351Z,1.15
2019-02-09T07:07:47.928Z,1.50
2019-02-09T07:10:14.558Z,1.40
2019-02-09T07:12:41.142Z,1.27
2019-02-09T07:15:07.769Z,1.42
2019-02-09T07:17:34.353Z,1.75
2019-02-09T07:20:01.835Z,1.80
2019-02-09T07:22:28.465Z,1.87
2019-02-09T07:24:55.094Z,1.82
2019-02-09T07:27:21.858Z,1.92
2019-02-09T07:29:48.484Z,2.35
2019-02-09T07:32:15.112Z,2.17
2019-02-09T07:34:41.739Z,2.58
2019-02-09T07:37:08.322Z,2.60
2019-02-09T07:39:34.947Z,2.35
2019-02-09T07:42:01.581Z,2.27
2019-02-09T07:44:28.163Z,2.02
2019-02-09T07:46:54.749Z,1.85
2019-02-09T07:49:21.376Z,1.70
2019-02-09T07:51:48.006Z,1.77
2019-02-09T07:54:14.585Z,2.00
2019-02-09T07:56:41.207Z,1.77
2019-02-09T07:59:07.837Z,2.10
2019-02-09T08:01:34.463Z,2.25
2019-02-09T08:04:01.051Z,1.98
2019-02-09T08:06:27.678Z,2.20
2019-02-09T08:08:54.259Z,2.00
2019-02-09T08:11:20.883Z,1.98
2019-02-09T08:13:47.463Z,1.52
2019-02-09T08:16:14.097Z,1.82
2019-02-09T08:18:40.677Z,1.82
2019-02-09T08:21:07.257Z,1.72
2019-02-09T08:23:33.885Z,1.80
2019-02-09T08:26:00.470Z,1.87
2019-02-09T08:28:27.092Z,1.75
2019-02-09T08:30:53.678Z,1.70
2019-02-09T08:33:20.308Z,1.98
2019-02-09T08:35:46.996Z,1.62
2019-02-09T08:38:13.632Z,1.27
2019-02-09T08:40:40.210Z,1.20
2019-02-09T08:43:06.837Z,1.92
2019-02-09T08:45:33.465Z,1.60
2019-02-09T08:48:00.096Z,1.40
2019-02-09T08:50:26.830Z,1.60
2019-02-09T08:52:53.403Z,1.40
2019-02-09T08:55:20.102Z,1.60
2019-02-09T08:57:46.686Z,1.50
2019-02-09T09:00:13.313Z,1.40
2019-02-09T09:02:39.891Z,1.60
2019-02-09T09:05:09.707Z,1.60
2019-02-09T09:07:34.877Z,1.57
2019-02-09T09:10:01.460Z,1.55
2019-02-09T09:12:28.103Z,1.55
2019-02-09T09:14:54.688Z,1.45
2019-02-09T09:17:21.265Z,1.70
2019-02-09T09:19:47.902Z,1.50
2019-02-09T09:22:14.477Z,1.22
2019-02-09T09:24:41.113Z,1.37
2019-02-09T09:27:07.696Z,1.30
2019-02-09T09:29:34.326Z,1.27
2019-02-09T09:32:00.907Z,1.30
2019-02-09T09:34:27.543Z,1.32
2019-02-09T09:36:54.134Z,1.30
2019-02-09T09:39:20.764Z,1.50
2019-02-09T09:41:47.341Z,1.35
2019-02-09T09:44:13.995Z,1.82
2019-02-09T09:46:40.733Z,1.50
2019-02-09T09:49:07.319Z,1.47
2019-02-09T09:51:33.903Z,1.20
2019-02-09T09:54:00.542Z,1.27
2019-02-09T09:56:27.189Z,1.35
2019-02-09T09:58:53.935Z,1.40
2019-02-09T10:01:20.566Z,1.30
2019-02-09T10:03:47.147Z,1.10
2019-02-09T10:06:13.785Z,1.00
2019-02-09T10:08:40.363Z,1.40
2019-02-09T10:11:07.004Z,1.20
2019-02-09T10:13:33.644Z,1.02
2019-02-09T10:16:00.224Z,0.90
2019-02-09T10:18:26.860Z,1.35
2019-02-09T10:20:53.486Z,2.02
2019-02-09T10:23:20.073Z,2.20
2019-02-09T10:25:46.708Z,1.77
2019-02-09T10:28:13.376Z,1.30
2019-02-09T10:30:40.013Z,1.37
2019-02-09T10:33:06.660Z,1.17
2019-02-09T10:35:33.249Z,1.45
2019-02-09T10:37:59.912Z,1.80
2019-02-09T10:40:26.552Z,1.00
2019-02-09T10:42:53.134Z,1.40
2019-02-09T10:45:19.843Z,0.60
2019-02-09T10:47:46.490Z,0.88
2019-02-09T10:50:13.081Z,1.70
2019-02-09T10:52:39.666Z,0.78
2019-02-09T10:55:06.398Z,0.70
2019-02-09T10:57:33.038Z,0.85
2019-02-09T11:00:00.181Z,0.90
2019-02-09T11:02:27.661Z,0.60
2019-02-09T11:04:54.364Z,0.60
2019-02-09T11:07:20.997Z,0.50
2019-02-09T11:09:47.580Z,0.60
2019-02-09T11:12:14.211Z,0.57
2019-02-09T11:14:40.797Z,0.60
2019-02-09T11:17:07.380Z,0.60
2019-02-09T11:19:34.016Z,0.60
2019-02-09T11:22:00.605Z,0.70
2019-02-09T11:24:27.236Z,1.10
2019-02-09T11:26:53.819Z,0.62
2019-02-09T11:29:20.408Z,0.68
2019-02-09T11:31:47.039Z,0.50
2019-02-09T11:34:13.624Z,0.65
2019-02-09T11:36:40.263Z,0.53
2019-02-09T11:39:06.848Z,0.60
2019-02-09T11:41:33.486Z,0.70
2019-02-09T11:44:00.219Z,0.60
2019-02-09T11:46:26.896Z,0.93
2019-02-09T11:48:53.482Z,0.80
2019-02-09T11:51:20.122Z,0.65
2019-02-09T11:53:46.704Z,0.60
2019-02-09T11:56:13.374Z,0.55
2019-02-09T11:58:39.966Z,1.82
2019-02-09T12:01:06.623Z,1.98
2019-02-09T12:03:33.213Z,0.90
2019-02-09T12:05:59.804Z,0.82
2019-02-09T12:08:26.450Z,0.40
2019-02-09T12:10:53.084Z,0.68
2019-02-09T12:13:19.801Z,0.57
2019-02-09T12:15:46.440Z,1.02
2019-02-09T12:18:13.069Z,0.50
2019-02-09T12:20:39.757Z,0.50
2019-02-09T12:23:06.395Z,0.70
2019-02-09T12:25:32.991Z,0.88
2019-02-09T12:27:59.634Z,0.90
2019-02-09T12:30:26.223Z,0.60
2019-02-09T12:32:52.814Z,0.35
2019-02-09T12:35:19.449Z,0.50
2019-02-09T12:37:46.031Z,0.50
2019-02-09T12:40:12.645Z,0.40
2019-02-09T12:42:39.234Z,0.40
2019-02-09T12:45:05.824Z,0.40
2019-02-09T12:47:32.463Z,0.40
2019-02-09T12:49:59.055Z,0.30
2019-02-09T12:52:25.706Z,0.40
2019-02-09T12:54:52.293Z,0.37
2019-02-09T12:57:18.881Z,0.35
2019-02-09T12:59:45.518Z,0.30
2019-02-09T13:02:12.166Z,0.40
2019-02-09T13:04:38.746Z,0.40
2019-02-09T13:07:05.338Z,0.30
2019-02-09T13:09:31.987Z,0.98
2019-02-09T13:11:58.573Z,0.70
2019-02-09T13:14:25.181Z,1.45
2019-02-09T13:16:51.815Z,0.82
2019-02-09T13:19:18.406Z,3.22
2019-02-09T13:21:45.041Z,1.05
2019-02-09T13:24:11.625Z,0.93
2019-02-09T13:26:38.269Z,0.80
2019-02-09T13:29:04.862Z,1.60
2019-02-09T13:31:31.491Z,0.57
2019-02-09T13:33:58.076Z,0.70
2019-02-09T13:36:24.713Z,1.30
2019-02-09T13:38:51.301Z,2.22
2019-02-09T13:41:17.942Z,1.10
2019-02-09T13:43:44.524Z,1.20
2019-02-09T13:46:11.155Z,0.40
2019-02-09T13:48:37.797Z,0.40
2019-02-09T13:51:04.381Z,0.20
2019-02-09T13:53:31.012Z,0.40
2019-02-09T13:55:57.593Z,0.20
2019-02-09T13:58:24.184Z,0.40
2019-02-09T14:00:50.820Z,0.30
2019-02-09T14:03:17.411Z,0.28
2019-02-09T14:05:44.041Z,0.50
2019-02-09T14:08:10.629Z,0.30
2019-02-09T14:10:37.271Z,0.33
2019-02-09T14:13:03.855Z,0.30
2019-02-09T14:15:30.499Z,0.30
2019-02-09T14:17:57.129Z,0.47
2019-02-09T14:20:23.797Z,0.28
2019-02-09T14:22:50.434Z,0.40
2019-02-09T14:25:17.070Z,0.40
2019-02-09T14:27:43.700Z,0.30
2019-02-09T14:30:10.285Z,0.50
2019-02-09T14:32:36.963Z,0.40
2019-02-09T14:35:03.979Z,0.30
2019-02-09T14:37:30.657Z,0.20
2019-02-09T14:39:57.427Z,0.40
2019-02-09T14:42:24.063Z,0.40
2019-02-09T14:44:51.822Z,0.47
2019-02-09T14:47:18.407Z,0.33
2019-02-09T14:49:45.036Z,0.45
2019-02-09T14:52:11.675Z,0.30
2019-02-09T14:54:38.262Z,0.30
2019-02-09T14:57:04.897Z,0.30
2019-02-09T14:59:31.485Z,0.42
2019-02-09T15:01:58.122Z,0.35
2019-02-09T15:04:24.755Z,0.37
2019-02-09T15:06:51.342Z,0.30
2019-02-09T15:09:17.982Z,0.30
2019-02-09T15:11:44.567Z,0.50
2019-02-09T15:14:11.206Z,0.35
2019-02-09T15:16:37.793Z,0.60
2019-02-09T15:19:04.443Z,0.40
2019-02-09T15:21:31.034Z,0.60
2019-02-09T15:23:57.679Z,0.60
2019-02-09T15:26:24.355Z,0.40
2019-02-09T15:28:50.946Z,1.10
2019-02-09T15:31:17.603Z,0.60
2019-02-09T15:33:44.302Z,0.88
2019-02-09T15:36:10.936Z,0.78
2019-02-09T15:38:37.584Z,0.62
2019-02-09T15:41:04.167Z,0.85
2019-02-09T15:43:30.757Z,1.00
2019-02-09T15:45:57.463Z,0.95
2019-02-09T15:48:24.097Z,0.62
2019-02-09T15:50:50.685Z,0.68
2019-02-09T15:53:17.320Z,0.40
2019-02-09T15:55:43.904Z,0.57
2019-02-09T15:58:10.545Z,0.90
2019-02-09T16:00:37.134Z,1.10
2019-02-09T16:03:04.764Z,0.70
2019-02-09T16:05:31.469Z,0.60
2019-02-09T16:07:58.105Z,0.70
2019-02-09T16:10:24.691Z,0.53
2019-02-09T16:12:51.320Z,0.80
2019-02-09T16:15:17.912Z,0.60
2019-02-09T16:17:44.492Z,0.70
2019-02-09T16:20:11.123Z,0.55
2019-02-09T16:22:37.710Z,1.30
2019-02-09T16:25:05.426Z,1.52
2019-02-09T16:27:32.136Z,1.42
2019-02-09T16:29:58.781Z,1.35
2019-02-09T16:32:25.366Z,0.90
2019-02-09T16:34:51.962Z,1.37
2019-02-09T16:37:18.597Z,2.42
2019-02-09T16:39:45.184Z,1.80
2019-02-09T16:42:11.817Z,1.57
2019-02-09T16:44:38.409Z,1.17
2019-02-09T16:47:05.041Z,1.10
2019-02-09T16:49:31.630Z,1.30
2019-02-09T16:51:58.212Z,0.95
2019-02-09T16:54:24.854Z,0.95
2019-02-09T16:56:51.436Z,0.42
2019-02-09T16:59:18.071Z,0.80
2019-02-09T17:01:44.656Z,0.60
2019-02-09T17:04:11.291Z,0.60
2019-02-09T17:06:37.877Z,0.47
2019-02-09T17:09:04.517Z,0.55
2019-02-09T17:11:31.098Z,0.62
2019-02-09T17:13:57.744Z,0.90
2019-02-09T17:16:24.333Z,1.00
2019-02-09T17:18:50.965Z,0.70
2019-02-09T17:21:17.553Z,1.05
2019-02-09T17:23:44.193Z,0.95
2019-02-09T17:26:10.774Z,0.70
2019-02-09T17:28:37.491Z,0.68
2019-02-09T17:31:04.076Z,0.78
2019-02-09T17:33:30.666Z,0.78
2019-02-09T17:35:57.303Z,0.80
2019-02-09T17:38:23.892Z,0.70
2019-02-09T17:40:50.529Z,0.60
2019-02-09T17:43:17.109Z,0.65
2019-02-09T17:45:43.744Z,0.55
2019-02-09T17:48:10.381Z,0.78
2019-02-09T17:50:36.968Z,0.57
2019-02-09T17:53:03.602Z,0.60
2019-02-09T17:55:30.238Z,0.70
2019-02-09T17:57:56.865Z,0.50
2019-02-09T18:00:23.495Z,0.50
2019-02-09T18:02:50.132Z,0.90
2019-02-09T18:05:16.713Z,0.82
2019-02-09T18:07:43.350Z,0.60
2019-02-09T18:10:09.985Z,1.25
2019-02-09T18:12:36.670Z,0.70
2019-02-09T18:15:03.411Z,0.80
2019-02-09T18:17:29.995Z,0.70
2019-02-09T18:19:56.627Z,0.80
2019-02-09T18:22:23.261Z,0.60
2019-02-09T18:24:49.962Z,0.82
2019-02-09T18:27:16.547Z,0.60
2019-02-09T18:29:43.179Z,0.85
2019-02-09T18:32:10.725Z,0.80
2019-02-09T18:34:37.359Z,0.85
2019-02-09T18:37:03.950Z,0.60
2019-02-09T18:39:30.540Z,0.90
2019-02-09T18:41:57.178Z,0.50
2019-02-09T18:44:23.765Z,0.80
2019-02-09T18:46:50.395Z,0.62
2019-02-09T18:49:16.974Z,0.78
2019-02-09T18:51:45.184Z,0.62
2019-02-09T18:54:11.976Z,0.68
2019-02-09T18:56:38.611Z,0.72
2019-02-09T18:59:05.249Z,0.50
2019-02-09T19:01:31.835Z,0.82
2019-02-09T19:03:58.477Z,0.90
2019-02-09T19:06:25.050Z,0.80
2019-02-09T19:08:51.683Z,0.57
2019-02-09T19:11:18.449Z,0.65
2019-02-09T19:13:45.037Z,0.80
2019-02-09T19:16:11.620Z,0.60
2019-02-09T19:18:38.255Z,0.62
2019-02-09T19:21:04.883Z,0.60
2019-02-09T19:23:31.534Z,0.70
2019-02-09T19:25:58.118Z,0.40
2019-02-09T19:28:24.699Z,0.65
2019-02-09T19:30:51.341Z,0.70
2019-02-09T19:33:17.924Z,0.85
2019-02-09T19:35:44.560Z,0.95
2019-02-09T19:38:11.186Z,0.80
2019-02-09T19:40:37.767Z,0.78
2019-02-09T19:43:04.399Z,0.60
2019-02-09T19:45:30.981Z,0.70
2019-02-09T19:47:57.695Z,0.60
2019-02-09T19:50:24.326Z,0.70
2019-02-09T19:52:51.091Z,0.60
2019-02-09T19:55:17.679Z,0.60
2019-02-09T19:57:44.314Z,0.70
2019-02-09T20:00:10.901Z,0.70
2019-02-09T20:02:37.483Z,0.85
2019-02-09T20:05:04.114Z,1.00
2019-02-09T20:07:31.004Z,0.78
2019-02-09T20:09:57.652Z,0.85
2019-02-09T20:12:24.237Z,0.70
2019-02-09T20:14:50.819Z,0.70
2019-02-09T20:17:17.456Z,0.68
2019-02-09T20:19:44.088Z,0.85
2019-02-09T20:22:10.676Z,0.90
2019-02-09T20:24:37.499Z,0.90
2019-02-09T20:27:04.123Z,0.90
2019-02-09T20:29:30.708Z,0.75
2019-02-09T20:31:57.348Z,1.12
2019-02-09T20:34:23.977Z,0.70
2019-02-09T20:36:50.609Z,0.70
2019-02-09T20:39:17.194Z,0.90
2019-02-09T20:41:43.822Z,1.00
2019-02-09T20:44:10.407Z,1.02
2019-02-09T20:46:36.994Z,1.15
2019-02-09T20:49:03.625Z,0.95
2019-02-09T20:51:30.262Z,0.80
2019-02-09T20:53:56.906Z,0.90
2019-02-09T20:56:23.488Z,1.30
2019-02-09T20:58:50.121Z,0.85
2019-02-09T21:01:16.762Z,0.80
2019-02-09T21:03:43.348Z,0.90
2019-02-09T21:06:09.985Z,0.90
2019-02-09T21:08:36.575Z,0.82
2019-02-09T21:11:03.203Z,0.60
2019-02-09T21:13:29.851Z,1.07
2019-02-09T21:15:56.500Z,0.95
2019-02-09T21:18:23.080Z,0.98
2019-02-09T21:20:49.661Z,0.90
2019-02-09T21:23:16.300Z,1.00
2019-02-09T21:25:42.893Z,1.00
2019-02-09T21:28:09.523Z,0.75
2019-02-09T21:30:36.109Z,0.90
2019-02-09T21:33:02.738Z,1.00
2019-02-09T21:35:30.509Z,0.88
2019-02-09T21:37:57.352Z,0.88
2019-02-09T21:40:23.939Z,0.80
2019-02-09T21:42:50.523Z,1.00
2019-02-09T21:45:17.156Z,1.00
2019-02-09T21:47:43.740Z,0.80
2019-02-09T21:50:10.372Z,1.00
2019-02-09T21:52:36.956Z,1.02
2019-02-09T21:55:03.590Z,1.02
2019-02-09T21:57:30.175Z,1.00
2019-02-09T21:59:56.809Z,0.98
2019-02-09T22:02:23.397Z,0.93
2019-02-09T22:04:50.028Z,0.75
2019-02-09T22:07:16.663Z,0.80
2019-02-09T22:09:43.249Z,0.78
2019-02-09T22:12:10.075Z,0.95
2019-02-09T22:14:36.756Z,0.60
2019-02-09T22:17:03.455Z,0.88
2019-02-09T22:19:30.044Z,0.90
2019-02-09T22:21:56.935Z,0.80
2019-02-09T22:24:23.742Z,1.65
2019-02-09T22:26:50.386Z,1.00
2019-02-09T22:29:17.038Z,0.98
2019-02-09T22:31:43.618Z,0.72
2019-02-09T22:34:10.348Z,0.80
2019-02-09T22:36:37.511Z,0.70
2019-02-09T22:39:04.241Z,1.07
2019-02-09T22:41:30.820Z,0.93
2019-02-09T22:43:57.407Z,0.88
2019-02-09T22:46:24.042Z,0.80
2019-02-09T22:48:50.629Z,0.70
2019-02-09T22:51:17.276Z,0.82
2019-02-09T22:53:43.859Z,0.80
2019-02-09T22:56:10.448Z,0.90
2019-02-09T22:58:37.083Z,0.90
2019-02-09T23:01:03.672Z,1.10
2019-02-09T23:03:30.306Z,0.80
2019-02-09T23:05:56.940Z,0.72
2019-02-09T23:08:23.522Z,0.80
2019-02-09T23:10:50.153Z,0.70
2019-02-09T23:13:16.736Z,0.75
2019-02-09T23:15:43.327Z,0.90
2019-02-09T23:18:10.021Z,0.98
2019-02-09T23:20:36.608Z,0.98
2019-02-09T23:23:03.298Z,0.60
2019-02-09T23:25:29.879Z,0.70
2019-02-09T23:27:56.503Z,0.57
2019-02-09T23:30:23.111Z,0.53
2019-02-09T23:32:49.759Z,0.65
2019-02-09T23:35:16.344Z,0.80
2019-02-09T23:37:42.933Z,0.72
2019-02-09T23:40:09.576Z,0.80
2019-02-09T23:42:36.162Z,0.68
2019-02-09T23:45:02.747Z,0.70
2019-02-09T23:47:29.388Z,1.05
2019-02-09T23:49:55.986Z,0.75
2019-02-09T23:52:22.602Z,0.75
2019-02-09T23:54:49.233Z,0.60
2019-02-09T23:57:15.863Z,1.10
2019-02-09T23:59:42.449Z,0.82
